Time;durP1;ratioP1;P1;durP2;ratioP2;P2;SDS_P1;SDS_P2;PMS_P1;PMS_P2;Temp;Humidity;BMP_temperature;BMP_pressure;BME280_temperature;BME280_humidity;BME280_pressure;Samples;Min_cycle;Max_cycle;Signal;HPM_P1;HPM_P2
2023/04/24 06:12:10;;;;;;;11.10;8.80;;;;;;;8.29;65.06;96240.19;108687;1252;94701;-75
2023/04/24 06:14:37;;;;;;;16.50;9.50;;;;;;;8.46;64.87;96239.50;108732;1253;94616;-75
2023/04/24 06:17:03;;;;;;;11.70;8.40;;;;;;;8.60;64.77;96232.45;108360;1253;94620;-75
2023/04/24 06:19:30;;;;;;;14.80;9.20;;;;;;;8.78;64.79;96228.23;108329;1253;94626;-75
2023/04/24 06:21:57;;;;;;;12.90;8.30;;;;;;;8.96;64.92;96229.63;108836;1253;94292;-75
2023/04/24 06:24:28;;;;;;;11.00;7.80;;;;;;;9.14;64.58;96224.43;108784;1253;102265;-75
2023/04/24 06:26:54;;;;;;;12.90;7.80;;;;;;;9.31;63.89;96220.30;108785;1253;101431;-75
2023/04/24 06:29:21;;;;;;;14.90;8.00;;;;;;;9.47;63.38;96218.63;108522;1253;94684;-75
2023/04/24 06:31:51;;;;;;;13.40;8.40;;;;;;;9.64;62.86;96214.50;108750;1253;94545;-75
2023/04/24 06:34:18;;;;;;;12.50;8.20;;;;;;;9.84;62.60;96208.86;108799;1253;94680;-75
2023/04/24 06:36:44;;;;;;;10.80;7.90;;;;;;;10.01;62.19;96202.60;108745;1252;94255;-75
2023/04/24 06:39:12;;;;;;;11.30;7.30;;;;;;;10.16;61.81;96203.27;108792;1253;94267;-75
2023/04/24 06:41:39;;;;;;;10.20;7.80;;;;;;;10.34;61.48;96199.84;108740;1252;94247;-75
2023/04/24 06:44:06;;;;;;;7.80;6.40;;;;;;;10.55;61.36;96193.29;108743;1252;94681;-76
2023/04/24 06:46:33;;;;;;;9.40;6.70;;;;;;;10.74;60.79;96195.10;108781;1252;95133;-75
2023/04/24 06:49:01;;;;;;;8.70;6.70;;;;;;;10.90;60.65;96193.24;108757;1253;94415;-76
2023/04/24 06:51:28;;;;;;;10.10;6.40;;;;;;;11.09;60.09;96195.41;108578;1253;94847;-75
2023/04/24 06:53:56;;;;;;;8.20;6.60;;;;;;;11.26;59.54;96190.99;108678;1253;94268;-75
2023/04/24 06:56:23;;;;;;;8.90;6.30;;;;;;;11.42;59.01;96186.30;108318;1254;94348;-75
2023/04/24 06:58:50;;;;;;;9.70;6.00;;;;;;;11.67;57.81;96182.14;108718;1253;94301;-75
2023/04/24 07:01:16;;;;;;;8.00;5.40;;;;;;;11.88;56.96;96180.14;108785;1252;94995;-76
2023/04/24 07:03:43;;;;;;;8.50;6.20;;;;;;;12.12;56.70;96180.09;108651;1254;99896;-75
2023/04/24 07:06:10;;;;;;;8.30;5.60;;;;;;;12.37;56.31;96174.84;108328;1253;94577;-75
2023/04/24 07:08:37;;;;;;;8.80;5.50;;;;;;;12.56;55.59;96172.52;108730;1253;94305;-75
2023/04/24 07:11:05;;;;;;;9.00;5.30;;;;;;;12.69;55.36;96169.58;108404;1253;94340;-76
2023/04/24 07:13:32;;;;;;;9.80;5.40;;;;;;;12.84;55.25;96163.34;108764;1253;94310;-76
2023/04/24 07:15:58;;;;;;;7.80;5.10;;;;;;;13.00;55.20;96159.65;108653;1253;94736;-75
2023/04/24 07:18:25;;;;;;;10.80;4.90;;;;;;;13.17;54.34;96159.34;108371;1253;95415;-76
2023/04/24 07:20:52;;;;;;;6.50;4.30;;;;;;;13.34;53.20;96152.77;108466;1253;94668;-76
2023/04/24 07:23:20;;;;;;;6.30;4.90;;;;;;;13.50;51.92;96146.17;108791;1252;101175;-76
2023/04/24 07:25:47;;;;;;;7.60;4.70;;;;;;;13.70;51.64;96146.84;108704;1253;98785;-76
2023/04/24 07:28:14;;;;;;;7.80;5.20;;;;;;;13.94;51.05;96148.83;108721;1252;94318;-76
2023/04/24 07:30:41;;;;;;;7.40;4.60;;;;;;;14.16;50.25;96143.73;108788;1256;94505;-75
2023/04/24 07:33:07;;;;;;;8.70;4.90;;;;;;;14.37;49.93;96144.60;108673;1253;94257;-76
2023/04/24 07:35:35;;;;;;;8.20;4.00;;;;;;;14.63;49.66;96146.77;108766;1253;94404;-77
2023/04/24 07:38:02;;;;;;;7.50;4.20;;;;;;;15.00;49.04;96144.62;108418;1253;94277;-76
2023/04/24 07:40:28;;;;;;;5.70;3.80;;;;;;;15.47;48.67;96140.47;108829;1253;95129;-77
2023/04/24 07:42:55;;;;;;;6.90;3.90;;;;;;;16.05;48.35;96142.13;108483;1253;102398;-77
2023/04/24 07:45:22;;;;;;;6.90;4.40;;;;;;;16.61;47.55;96135.40;108701;1253;94319;-76
2023/04/24 07:47:51;;;;;;;4.10;3.70;;;;;;;17.18;46.77;96130.80;108311;1252;94469;-75
2023/04/24 07:50:17;;;;;;;7.50;4.30;;;;;;;17.77;45.38;96125.35;108724;1254;94249;-74
2023/04/24 07:52:44;;;;;;;5.10;4.30;;;;;;;18.32;44.68;96127.29;108783;1254;94272;-74
2023/04/24 07:55:11;;;;;;;7.60;3.90;;;;;;;18.73;44.11;96124.25;108818;1253;94541;-75
2023/04/24 07:57:38;;;;;;;5.80;4.00;;;;;;;19.14;43.20;96120.10;108756;1252;94649;-75
2023/04/24 08:00:09;;;;;;;4.80;3.20;;;;;;;19.58;42.07;96116.77;108776;1252;94809;-75
2023/04/24 08:02:35;;;;;;;5.00;3.90;;;;;;;19.89;41.49;96114.27;108800;1253;94283;-74
2023/04/24 08:05:03;;;;;;;7.90;4.20;;;;;;;20.19;40.97;96113.77;108809;1254;94293;-75
2023/04/24 08:07:30;;;;;;;6.80;4.20;;;;;;;20.41;39.32;96109.02;108802;1252;94382;-75
2023/04/24 08:09:56;;;;;;;5.90;4.20;;;;;;;20.55;39.24;96107.70;108795;1253;94262;-76
2023/04/24 08:12:23;;;;;;;4.60;3.90;;;;;;;20.74;39.22;96105.42;108799;1252;94605;-75
2023/04/24 08:14:50;;;;;;;5.30;4.00;;;;;;;21.09;39.48;96101.85;108838;1253;94176;-75
2023/04/24 08:17:17;;;;;;;5.20;3.90;;;;;;;21.54;38.80;96098.53;108815;1254;102029;-74
2023/04/24 08:19:48;;;;;;;5.40;3.80;;;;;;;21.94;38.12;96096.98;108792;1252;101383;-74
2023/04/24 08:22:16;;;;;;;5.90;3.90;;;;;;;22.35;38.05;96091.94;108769;1254;99998;-75
2023/04/24 08:24:43;;;;;;;6.10;4.00;;;;;;;22.82;37.62;96090.77;108781;1252;94497;-74
2023/04/24 08:27:10;;;;;;;8.20;4.00;;;;;;;23.09;36.39;96087.39;108828;1253;94582;-74
2023/04/24 08:29:38;;;;;;;8.00;3.90;;;;;;;23.27;36.13;96085.33;108773;1253;94461;-75
2023/04/24 08:32:05;;;;;;;5.20;3.70;;;;;;;23.58;35.24;96082.70;108812;1252;94285;-75
2023/04/24 08:34:32;;;;;;;4.20;3.60;;;;;;;23.85;34.03;96079.08;108806;1252;94533;-74
2023/04/24 08:36:58;;;;;;;4.30;3.40;;;;;;;24.09;33.38;96072.94;108769;1253;94284;-75
2023/04/24 08:39:25;;;;;;;6.80;3.80;;;;;;;24.41;33.15;96071.67;108524;1253;94763;-74
2023/04/24 08:41:53;;;;;;;4.40;3.30;;;;;;;24.83;33.42;96073.90;108775;1253;94242;-75
2023/04/24 08:44:20;;;;;;;6.00;3.70;;;;;;;25.27;32.84;96073.34;108781;1252;94326;-74
2023/04/24 08:46:49;;;;;;;5.10;3.50;;;;;;;25.64;32.28;96071.66;108821;1253;94275;-75
2023/04/24 08:49:16;;;;;;;4.90;3.40;;;;;;;25.92;31.76;96061.42;108785;1252;94293;-74
2023/04/24 08:51:44;;;;;;;4.90;3.60;;;;;;;25.98;31.03;96058.08;108815;1252;94215;-75
2023/04/24 08:54:13;;;;;;;4.30;3.70;;;;;;;26.00;31.07;96058.31;108807;1253;94621;-75
2023/04/24 08:56:43;;;;;;;4.70;3.10;;;;;;;26.16;30.51;96052.30;108813;1253;101456;-75
2023/04/24 08:59:11;;;;;;;5.50;3.80;;;;;;;26.39;30.28;96051.80;108418;1253;99950;-75
2023/04/24 09:01:39;;;;;;;5.60;3.40;;;;;;;26.62;29.64;96048.30;108784;1253;94234;-75
2023/04/24 09:04:08;;;;;;;4.10;3.30;;;;;;;26.84;28.86;96049.63;108845;1253;94297;-74
2023/04/24 09:06:35;;;;;;;4.30;3.00;;;;;;;26.91;28.20;96050.73;108818;1253;102164;-75
2023/04/24 09:09:03;;;;;;;6.20;3.30;;;;;;;26.98;27.96;96047.71;108817;1252;94247;-74
2023/04/24 09:11:31;;;;;;;5.30;3.40;;;;;;;27.11;27.94;96043.50;108754;1253;100262;-75
2023/04/24 09:13:59;;;;;;;8.40;3.30;;;;;;;27.22;27.97;96038.23;108749;1252;95228;-74
2023/04/24 09:16:26;;;;;;;6.70;3.40;;;;;;;27.21;27.91;96041.58;108865;1253;94615;-75
2023/04/24 09:18:53;;;;;;;6.40;3.70;;;;;;;27.25;27.98;96042.11;108845;1252;101772;-76
2023/04/24 09:21:22;;;;;;;6.10;4.50;;;;;;;27.30;27.35;96042.16;108777;1253;94272;-75
2023/04/24 09:24:07;;;;;;;4.50;3.10;;;;;;;27.28;26.92;96036.81;108400;1253;100221;-75
2023/04/24 09:26:37;;;;;;;5.00;3.20;;;;;;;27.20;26.44;96036.27;108472;1252;330389;-75
2023/04/24 09:29:04;;;;;;;3.90;3.30;;;;;;;27.15;26.18;96037.77;108831;1253;94251;-75
2023/04/24 09:31:32;;;;;;;5.20;3.30;;;;;;;27.10;25.79;96033.20;108463;1252;101953;-76
2023/04/24 09:34:06;;;;;;;5.80;3.60;;;;;;;26.90;26.34;96025.92;108820;1254;94411;-75
2023/04/24 09:36:36;;;;;;;3.60;3.20;;;;;;;26.67;26.02;96023.17;108362;1252;99888;-75
2023/04/24 09:39:09;;;;;;;6.80;3.30;;;;;;;26.47;25.79;96024.17;108806;1253;94546;-75
2023/04/24 09:41:36;;;;;;;5.90;3.50;;;;;;;26.25;25.74;96021.97;108585;1254;94310;-75
2023/04/24 09:44:23;;;;;;;5.70;3.30;;;;;;;26.01;25.77;96018.95;108775;1253;94368;-75
2023/04/24 09:46:58;;;;;;;4.60;3.50;;;;;;;25.92;25.91;96017.85;108767;1252;101140;-74
2023/04/24 09:49:29;;;;;;;6.40;3.50;;;;;;;25.79;25.56;96020.80;108794;1252;99923;-75
2023/04/24 09:52:05;;;;;;;4.60;3.70;;;;;;;25.59;25.50;96017.06;108807;1254;94282;-74
2023/04/24 09:54:31;;;;;;;5.70;3.90;;;;;;;25.35;25.32;96021.73;108850;1253;94372;-75
2023/04/24 09:56:59;;;;;;;7.70;3.90;;;;;;;25.21;25.31;96019.79;108865;1253;94287;-74
2023/04/24 09:59:26;;;;;;;4.70;3.00;;;;;;;25.16;25.28;96019.77;108815;1254;94324;-75
2023/04/24 10:01:53;;;;;;;4.00;3.50;;;;;;;25.20;25.28;96012.59;108377;1256;97194;-75
2023/04/24 10:04:23;;;;;;;4.00;3.60;;;;;;;25.33;25.51;96013.84;108403;1256;95042;-75
2023/04/24 10:06:51;;;;;;;7.20;3.60;;;;;;;25.47;25.73;96009.63;108405;1256;96108;-74
2023/04/24 10:09:20;;;;;;;5.20;3.60;;;;;;;25.71;25.32;96006.99;108300;1256;102296;-75
2023/04/24 10:11:49;;;;;;;3.80;3.30;;;;;;;25.84;25.63;96004.20;108230;1256;101336;-75
2023/04/24 10:14:20;;;;;;;3.70;3.20;;;;;;;25.92;25.39;96003.48;108076;1256;99925;-75
2023/04/24 10:16:47;;;;;;;5.60;3.40;;;;;;;25.97;25.13;96004.72;108389;1256;95304;-75
2023/04/24 10:19:16;;;;;;;6.40;3.40;;;;;;;25.83;24.75;96000.07;108375;1256;94544;-74
2023/04/24 10:21:46;;;;;;;4.30;3.70;;;;;;;25.59;24.61;96000.94;108398;1256;102136;-75
2023/04/24 10:24:20;;;;;;;5.10;3.50;;;;;;;25.38;24.76;96003.91;108232;1256;101058;-75
2023/04/24 10:26:48;;;;;;;7.70;3.60;;;;;;;25.19;24.58;96000.60;108375;1256;99549;-75
2023/04/24 10:29:17;;;;;;;8.90;3.60;;;;;;;25.00;24.67;96003.23;108363;1256;94547;-75
2023/04/24 10:31:45;;;;;;;3.70;3.10;;;;;;;24.92;24.94;96005.98;108231;1256;94673;-74
2023/04/24 10:34:12;;;;;;;3.90;3.50;;;;;;;24.88;24.81;96002.59;108444;1253;101439;-75
2023/04/24 10:36:46;;;;;;;5.40;3.40;;;;;;;24.85;24.93;96004.52;108852;1252;101075;-75
2023/04/24 10:39:15;;;;;;;3.50;3.20;;;;;;;24.90;24.93;96003.35;108809;1253;99995;-75
2023/04/24 10:41:42;;;;;;;5.60;3.80;;;;;;;24.89;25.29;96004.02;108817;1254;94661;-75
2023/04/24 10:44:16;;;;;;;5.40;3.60;;;;;;;24.82;25.38;96001.17;108817;1253;94298;-75
2023/04/24 10:46:45;;;;;;;4.00;3.50;;;;;;;24.75;25.56;95995.26;108387;1253;102168;-75
2023/04/24 10:49:12;;;;;;;4.80;3.40;;;;;;;24.74;25.51;95994.04;108792;1254;100315;-74
2023/04/24 10:51:50;;;;;;;7.30;3.90;;;;;;;24.75;24.97;95990.67;108809;1252;94291;-75
2023/04/24 10:54:25;;;;;;;10.80;3.80;;;;;;;24.66;25.55;95986.53;108170;1254;94423;-75
2023/04/24 10:56:52;;;;;;;6.70;3.90;;;;;;;24.61;25.65;95984.79;108562;1253;94374;-75
2023/04/24 10:59:27;;;;;;;6.10;3.40;;;;;;;24.59;25.60;95990.21;108775;1253;96001;-74
2023/04/24 11:01:55;;;;;;;4.10;3.70;;;;;;;24.57;25.42;95988.09;108800;1252;101043;-75
2023/04/24 11:04:33;;;;;;;7.10;3.80;;;;;;;24.59;25.64;95988.50;108823;1253;108567;-75
2023/04/24 11:07:00;;;;;;;8.80;3.90;;;;;;;24.61;25.49;95986.84;108740;1253;94915;-75
2023/04/24 11:09:28;;;;;;;5.10;3.40;;;;;;;24.49;25.33;95985.90;108386;1253;94715;-75
2023/04/24 11:12:07;;;;;;;5.20;3.70;;;;;;;24.36;25.71;95984.98;108535;1253;101930;-74
2023/04/24 11:14:57;;;;;;;5.00;4.30;;;;;;;23.97;25.84;95986.77;108879;1253;100355;-74
2023/04/24 11:17:40;;;;;;;5.20;3.70;;;;;;;23.57;26.40;95983.75;108198;1259;99939;-74
2023/04/24 11:20:18;;;;;;;5.00;3.40;;;;;;;23.35;26.11;95983.71;108213;1259;94815;-74
2023/04/24 11:22:45;;;;;;;6.20;3.50;;;;;;;23.19;26.31;95988.98;108216;1259;94326;-75
2023/04/24 11:25:12;;;;;;;4.90;3.70;;;;;;;23.05;26.36;95988.45;108230;1259;94372;-74
2023/04/24 11:27:41;;;;;;;4.80;3.60;;;;;;;22.89;26.65;95987.86;108100;1259;94619;-74
2023/04/24 11:30:10;;;;;;;4.80;3.50;;;;;;;22.74;26.77;95989.52;108165;1259;99903;-75
2023/04/24 11:32:39;;;;;;;6.10;4.00;;;;;;;22.54;26.82;95986.64;107989;1259;94845;-74
2023/04/24 11:35:09;;;;;;;4.10;3.60;;;;;;;22.31;27.18;95990.64;108207;1259;94595;-74
2023/04/24 11:37:41;;;;;;;7.10;3.90;;;;;;;22.12;27.11;95991.36;108243;1259;100820;-75
2023/04/24 11:40:10;;;;;;;6.90;3.80;;;;;;;21.90;27.14;95993.05;108216;1259;101614;-76
2023/04/24 11:42:40;;;;;;;11.20;4.10;;;;;;;21.74;27.41;95994.92;108209;1259;99807;-75
2023/04/24 11:45:10;;;;;;;5.30;4.00;;;;;;;21.62;27.61;95998.55;108160;1259;94692;-75
2023/04/24 11:47:38;;;;;;;8.70;4.30;;;;;;;21.46;27.92;96002.53;108206;1260;94795;-74
2023/04/24 11:50:07;;;;;;;6.60;4.30;;;;;;;21.16;28.36;96001.54;107998;1259;102436;-75
2023/04/24 11:52:37;;;;;;;8.50;4.70;;;;;;;20.89;29.13;96008.89;108175;1259;101389;-75
2023/04/24 11:55:07;;;;;;;5.60;4.50;;;;;;;20.71;29.75;96007.77;108566;1253;100029;-74
2023/04/24 11:57:34;;;;;;;8.00;4.30;;;;;;;20.62;29.99;96008.75;108370;1254;94343;-75
2023/04/24 12:00:02;;;;;;;10.20;6.30;;;;;;;20.56;30.28;96009.21;108455;1254;94524;-75
2023/04/24 12:02:29;;;;;;;10.30;6.60;;;;;;;20.49;30.44;96011.00;108836;1254;102190;-77
2023/04/24 12:04:56;;;;;;;10.90;6.20;;;;;;;20.40;30.79;96008.91;108830;1254;94339;-74
2023/04/24 12:07:24;;;;;;;11.70;8.70;;;;;;;20.32;31.29;96013.70;108795;1254;94271;-75
2023/04/24 12:09:58;;;;;;;7.30;5.80;;;;;;;20.22;31.55;96012.98;108804;1254;94276;-74
2023/04/24 12:12:27;;;;;;;20.20;13.30;;;;;;;20.03;32.00;96020.45;108847;1252;94523;-73
2023/04/24 12:14:55;;;;;;;14.20;9.50;;;;;;;19.84;32.26;96024.73;108794;1254;102136;-74
2023/04/24 12:17:42;;;;;;;14.10;11.20;;;;;;;19.56;33.04;96027.64;108850;1254;100024;-74
2023/04/24 12:20:10;;;;;;;43.90;33.00;;;;;;;19.30;33.52;96030.81;108328;1253;101327;-76
2023/04/24 12:23:03;;;;;;;11.30;7.50;;;;;;;19.11;34.30;96034.37;108757;1253;94547;-74
2023/04/24 12:25:32;;;;;;;12.80;8.70;;;;;;;18.98;34.79;96040.27;108138;1261;94449;-74
2023/04/24 12:28:05;;;;;;;28.00;19.80;;;;;;;18.93;35.22;96040.47;108181;1260;101797;-74
2023/04/24 12:30:39;;;;;;;38.90;25.00;;;;;;;18.88;35.64;96041.95;108165;1260;101416;-74
2023/04/24 12:33:06;;;;;;;12.90;8.30;;;;;;;18.74;35.58;96046.42;108144;1261;100185;-74
2023/04/24 12:35:35;;;;;;;12.10;7.70;;;;;;;18.56;35.91;96049.69;108151;1261;94397;-74
2023/04/24 12:38:10;;;;;;;8.40;6.90;;;;;;;18.45;36.36;96053.20;108156;1260;94383;-75
2023/04/24 12:40:37;;;;;;;10.60;6.60;;;;;;;18.33;36.88;96057.46;108147;1260;102194;-74
2023/04/24 12:43:17;;;;;;;10.70;5.80;;;;;;;18.23;37.59;96061.52;108160;1260;94332;-76
2023/04/24 12:45:45;;;;;;;6.60;5.70;;;;;;;18.11;37.82;96064.95;108135;1260;100013;-74
2023/04/24 12:48:13;;;;;;;8.60;5.80;;;;;;;17.95;38.24;96066.06;108129;1260;94358;-74
2023/04/24 12:50:40;;;;;;;8.40;5.90;;;;;;;17.89;39.03;96069.67;108156;1261;94388;-74
2023/04/24 12:53:09;;;;;;;10.20;5.40;;;;;;;17.88;39.27;96073.34;108173;1260;94386;-74
2023/04/24 12:55:36;;;;;;;7.30;4.90;;;;;;;17.87;39.72;96077.48;108169;1260;101372;-74
2023/04/24 12:58:03;;;;;;;6.90;5.00;;;;;;;17.83;39.76;96075.00;107926;1260;101200;-74
2023/04/24 13:00:30;;;;;;;8.30;4.70;;;;;;;17.76;39.96;96077.23;108129;1262;94305;-74
2023/04/24 13:02:57;;;;;;;8.00;5.00;;;;;;;17.69;39.99;96071.09;108506;1254;94638;-74
2023/04/24 13:05:24;;;;;;;13.20;5.40;;;;;;;17.65;40.35;96071.56;108828;1255;94885;-74
2023/04/24 13:07:51;;;;;;;6.80;5.60;;;;;;;17.62;40.42;96068.48;108824;1254;94287;-74
2023/04/24 13:10:18;;;;;;;8.20;5.30;;;;;;;17.58;40.21;96068.28;108417;1255;94279;-74
2023/04/24 13:12:46;;;;;;;6.80;4.40;;;;;;;17.54;40.28;96068.64;108739;1256;94218;-73
2023/04/24 13:15:13;;;;;;;6.10;4.60;;;;;;;17.45;40.27;96061.64;108847;1254;94300;-73
2023/04/24 13:17:39;;;;;;;8.90;4.70;;;;;;;17.45;40.25;96058.48;108877;1256;94302;-75
2023/04/24 13:20:07;;;;;;;9.10;5.20;;;;;;;17.43;40.16;96058.87;108434;1253;100047;-74
2023/04/24 13:22:34;;;;;;;4.60;4.10;;;;;;;17.38;40.17;96064.93;108295;1254;94353;-73
2023/04/24 13:25:01;;;;;;;5.70;4.50;;;;;;;17.30;40.37;96070.67;108325;1254;94369;-73
2023/04/24 13:27:28;;;;;;;5.90;4.20;;;;;;;17.23;40.47;96069.42;108416;1257;94419;-73
2023/04/24 13:29:54;;;;;;;5.00;4.00;;;;;;;17.12;40.71;96065.86;108251;1257;94335;-75
2023/04/24 13:32:21;;;;;;;5.70;4.30;;;;;;;17.06;41.06;96061.98;108430;1259;94345;-74
2023/04/24 13:34:48;;;;;;;4.60;3.80;;;;;;;17.00;41.24;96057.19;108497;1257;94547;-74
2023/04/24 13:37:15;;;;;;;4.50;4.00;;;;;;;16.99;41.54;96063.30;108444;1255;102186;-75
2023/04/24 13:39:42;;;;;;;4.10;3.60;;;;;;;16.97;41.47;96063.25;108465;1256;94347;-75
2023/04/24 13:42:09;;;;;;;7.00;3.60;;;;;;;16.94;41.68;96066.20;108448;1256;95240;-74
2023/04/24 13:44:36;;;;;;;3.90;3.30;;;;;;;16.84;41.71;96065.73;108448;1256;94376;-75
2023/04/24 13:47:03;;;;;;;4.60;3.60;;;;;;;16.72;41.76;96070.30;108247;1257;94746;-74
2023/04/24 13:49:30;;;;;;;3.90;3.10;;;;;;;16.57;42.17;96067.37;108422;1256;94403;-74
2023/04/24 13:51:57;;;;;;;3.20;2.90;;;;;;;16.46;42.50;96065.14;108536;1256;94422;-75
2023/04/24 13:54:25;;;;;;;3.60;2.90;;;;;;;16.40;42.54;96062.02;108412;1259;94407;-74
2023/04/24 13:56:52;;;;;;;3.00;2.80;;;;;;;16.32;42.94;96061.34;108473;1257;94334;-77
2023/04/24 13:59:21;;;;;;;3.10;2.80;;;;;;;16.25;43.10;96059.30;108750;1254;94655;-74
2023/04/24 14:01:48;;;;;;;4.00;2.80;;;;;;;16.22;43.71;96058.02;108832;1253;101318;-74
2023/04/24 14:04:15;;;;;;;5.00;3.20;;;;;;;16.18;43.88;96059.71;108329;1253;94398;-74
2023/04/24 14:06:41;;;;;;;4.20;2.80;;;;;;;16.14;43.87;96060.34;108505;1255;94732;-74
2023/04/24 14:09:08;;;;;;;2.80;2.60;;;;;;;16.03;44.36;96057.45;108848;1254;95089;-73
2023/04/24 14:11:35;;;;;;;3.40;3.00;;;;;;;15.95;44.72;96058.84;108785;1252;94473;-74
2023/04/24 14:14:03;;;;;;;3.20;2.90;;;;;;;15.89;45.01;96057.28;108920;1254;94430;-74
2023/04/24 14:16:30;;;;;;;3.40;3.10;;;;;;;15.84;45.42;96058.60;108462;1253;94330;-74
2023/04/24 14:18:57;;;;;;;4.60;2.90;;;;;;;15.79;45.71;96062.33;108847;1253;94272;-76
2023/04/24 14:21:24;;;;;;;5.60;3.70;;;;;;;15.69;46.17;96067.35;108848;1255;94285;-74
2023/04/24 14:23:50;;;;;;;3.70;3.40;;;;;;;15.58;46.76;96068.30;108791;1254;94380;-75
2023/04/24 14:26:17;;;;;;;3.80;3.20;;;;;;;15.43;47.49;96067.53;108846;1253;94230;-75
2023/04/24 14:28:44;;;;;;;4.50;4.00;;;;;;;15.29;48.23;96067.00;108906;1253;94355;-75
2023/04/24 14:31:11;;;;;;;4.90;4.40;;;;;;;15.19;48.76;96071.64;108833;1252;101882;-73
2023/04/24 14:33:38;;;;;;;6.80;4.60;;;;;;;15.04;49.35;96075.33;108792;1253;101251;-75
2023/04/24 14:36:05;;;;;;;5.10;4.60;;;;;;;14.93;50.18;96074.40;108765;1253;94274;-72
2023/04/24 14:38:32;;;;;;;7.00;4.80;;;;;;;14.87;50.68;96074.45;108746;1254;94282;-72
2023/04/24 14:40:59;;;;;;;8.00;4.90;;;;;;;14.85;51.24;96075.05;108813;1254;94689;-73
2023/04/24 14:43:26;;;;;;;6.50;5.30;;;;;;;14.82;51.96;96071.20;108830;1254;94318;-74
2023/04/24 14:45:53;;;;;;;6.20;4.90;;;;;;;14.82;52.42;96073.20;108799;1254;94728;-74
2023/04/24 14:48:20;;;;;;;6.20;5.50;;;;;;;14.83;52.75;96076.52;108833;1254;94193;-74
2023/04/24 14:50:46;;;;;;;6.50;5.70;;;;;;;14.78;53.27;96076.62;108452;1254;94320;-74
2023/04/24 14:53:15;;;;;;;7.70;6.70;;;;;;;14.67;53.46;96073.29;108805;1253;94335;-74
2023/04/24 14:55:41;;;;;;;8.70;5.90;;;;;;;14.60;53.86;96076.50;108886;1254;101322;-73
2023/04/24 14:58:08;;;;;;;6.60;6.00;;;;;;;14.58;54.54;96078.77;108654;1252;94707;-73
2023/04/24 15:00:35;;;;;;;7.00;6.00;;;;;;;14.55;54.72;96081.90;108800;1254;94260;-73
2023/04/24 15:03:02;;;;;;;10.10;6.00;;;;;;;14.52;55.22;96086.73;108771;1252;94330;-73
2023/04/24 15:05:30;;;;;;;7.90;6.20;;;;;;;14.52;55.50;96085.70;108855;1252;94458;-73
2023/04/24 15:07:56;;;;;;;12.70;7.10;;;;;;;14.54;56.16;96087.66;108779;1253;95237;-74
2023/04/24 15:10:25;;;;;;;7.70;6.20;;;;;;;14.56;56.44;96088.64;108795;1252;94476;-73
2023/04/24 15:12:52;;;;;;;7.10;6.40;;;;;;;14.54;56.44;96089.39;108841;1256;95716;-76
2023/04/24 15:15:19;;;;;;;6.50;4.90;;;;;;;14.45;56.05;96091.98;108821;1254;95121;-75
2023/04/24 15:17:45;;;;;;;5.00;4.60;;;;;;;14.34;54.91;96091.76;108444;1257;94347;-74
2023/04/24 15:20:15;;;;;;;5.20;4.70;;;;;;;14.22;54.70;96091.83;108703;1253;99750;-75
2023/04/24 15:22:42;;;;;;;5.70;4.40;;;;;;;14.14;55.03;96091.62;108780;1253;94198;-73
2023/04/24 15:25:09;;;;;;;4.60;4.20;;;;;;;14.10;55.04;96091.62;108779;1253;94754;-76
2023/04/24 15:27:45;;;;;;;5.10;4.70;;;;;;;14.04;55.16;96090.71;108779;1253;94458;-73
2023/04/24 15:30:13;;;;;;;6.00;5.00;;;;;;;13.94;55.65;96087.31;108789;1252;101157;-74
2023/04/24 15:32:40;;;;;;;5.10;4.60;;;;;;;13.94;56.00;96085.46;108787;1253;99931;-73
2023/04/24 15:35:08;;;;;;;4.50;4.20;;;;;;;13.94;56.03;96082.27;108768;1254;94323;-74
2023/04/24 15:37:35;;;;;;;6.10;5.20;;;;;;;13.93;56.32;96084.76;108790;1252;94339;-75
2023/04/24 15:40:04;;;;;;;6.50;5.50;;;;;;;13.89;56.47;96079.75;108417;1254;95400;-73
2023/04/24 15:42:31;;;;;;;7.40;5.90;;;;;;;13.89;57.11;96077.95;108579;1254;101359;-74
2023/04/24 15:44:57;;;;;;;5.80;5.20;;;;;;;13.87;57.05;96077.58;108717;1254;94632;-74
2023/04/24 15:47:25;;;;;;;7.10;5.80;;;;;;;13.87;57.40;96072.86;108802;1253;94313;-75
2023/04/24 15:49:53;;;;;;;10.60;8.20;;;;;;;13.88;57.96;96069.39;108793;1253;94332;-73
2023/04/24 15:52:20;;;;;;;12.60;9.20;;;;;;;13.90;58.37;96069.98;108607;1254;94758;-75
2023/04/24 15:54:47;;;;;;;28.20;15.30;;;;;;;13.92;58.62;96069.61;108829;1254;94471;-73
2023/04/24 15:57:15;;;;;;;32.00;16.70;;;;;;;13.91;58.80;96067.33;108780;1254;94352;-75
2023/04/24 15:59:42;;;;;;;22.10;13.30;;;;;;;13.91;58.54;96065.20;108715;1253;94405;-73
2023/04/24 16:02:11;;;;;;;13.20;8.50;;;;;;;13.91;57.84;96064.89;108787;1253;94304;-72
2023/04/24 16:04:38;;;;;;;15.00;10.10;;;;;;;13.87;58.02;96061.41;108776;1254;102412;-74
2023/04/24 16:07:05;;;;;;;12.50;8.90;;;;;;;13.86;58.10;96060.60;108744;1254;95232;-72
2023/04/24 16:09:32;;;;;;;12.30;7.80;;;;;;;13.83;58.20;96059.11;108775;1252;94313;-73
2023/04/24 16:11:59;;;;;;;11.70;7.60;;;;;;;13.79;58.34;96060.33;108304;1254;94317;-75
2023/04/24 16:14:26;;;;;;;20.70;12.00;;;;;;;13.77;58.90;96057.83;108826;1253;95977;-75
2023/04/24 16:16:54;;;;;;;28.80;17.40;;;;;;;13.76;58.96;96057.13;108399;1254;94276;-73
2023/04/24 16:19:21;;;;;;;28.50;18.20;;;;;;;13.74;59.13;96054.46;108816;1253;95242;-73
2023/04/24 16:21:48;;;;;;;27.90;16.40;;;;;;;13.71;59.17;96052.38;108316;1254;94654;-73
2023/04/24 16:24:15;;;;;;;25.00;15.80;;;;;;;13.68;59.71;96051.27;108675;1253;94272;-73
2023/04/24 16:26:42;;;;;;;16.90;10.40;;;;;;;13.62;59.93;96050.00;108808;1253;94408;-74
2023/04/24 16:29:09;;;;;;;15.80;10.70;;;;;;;13.57;59.71;96049.80;108914;1253;94299;-73
2023/04/24 16:31:36;;;;;;;15.90;11.80;;;;;;;13.54;59.93;96048.87;108784;1253;99962;-73
2023/04/24 16:34:03;;;;;;;16.20;12.60;;;;;;;13.50;60.06;96048.85;108721;1252;94259;-73
2023/04/24 16:36:30;;;;;;;13.60;10.10;;;;;;;13.47;59.88;96047.80;108839;1253;94331;-73
2023/04/24 16:38:59;;;;;;;10.70;8.30;;;;;;;13.41;60.04;96045.48;108804;1254;94417;-75
2023/04/24 16:41:27;;;;;;;9.00;7.90;;;;;;;13.35;60.17;96045.19;108796;1253;101338;-76
2023/04/24 16:43:55;;;;;;;8.50;7.50;;;;;;;13.30;60.29;96049.16;108806;1253;99927;-74
2023/04/24 16:46:22;;;;;;;10.00;8.30;;;;;;;13.26;60.55;96046.60;108739;1252;94238;-74
2023/04/24 16:48:49;;;;;;;9.00;6.40;;;;;;;13.20;60.80;96045.03;108422;1253;94731;-73
2023/04/24 16:51:16;;;;;;;9.40;6.40;;;;;;;13.15;60.69;96045.36;108782;1253;94498;-73
2023/04/24 16:53:43;;;;;;;9.60;7.60;;;;;;;13.10;60.97;96044.98;108747;1252;96494;-74
2023/04/24 16:56:11;;;;;;;8.50;7.70;;;;;;;13.05;61.46;96042.08;108751;1253;94423;-72
2023/04/24 16:58:38;;;;;;;8.40;7.50;;;;;;;12.98;61.74;96042.08;108419;1253;94654;-73
2023/04/24 17:01:05;;;;;;;12.80;10.80;;;;;;;12.92;62.14;96038.61;108687;1253;94325;-74
2023/04/24 17:03:32;;;;;;;13.60;10.50;;;;;;;12.84;62.39;96031.84;108767;1252;94293;-73
2023/04/24 17:06:00;;;;;;;14.80;11.20;;;;;;;12.82;62.60;96029.97;108760;1253;95301;-73
2023/04/24 17:08:28;;;;;;;15.40;10.50;;;;;;;12.82;63.05;96030.34;108366;1253;94587;-73
2023/04/24 17:10:55;;;;;;;12.30;11.00;;;;;;;12.80;63.50;96037.60;108760;1252;94280;-74
2023/04/24 17:13:22;;;;;;;13.80;11.90;;;;;;;12.78;63.81;96034.50;108801;1252;94511;-73
2023/04/24 17:15:49;;;;;;;14.70;11.50;;;;;;;12.75;63.82;96029.27;108761;1253;94307;-73
2023/04/24 17:18:16;;;;;;;15.00;10.90;;;;;;;12.75;63.81;96026.77;108850;1253;94351;-75
2023/04/24 17:20:48;;;;;;;;;;;;;;;12.73;63.85;96030.66;108343;1254;94291;-73
2023/04/24 17:23:20;;;;;;;12.30;10.10;;;;;;;12.70;64.09;96032.73;108775;1253;94708;-73
2023/04/24 17:25:48;;;;;;;11.90;9.40;;;;;;;12.67;64.09;96032.29;108820;1253;102188;-72
2023/04/24 17:28:29;;;;;;;14.50;10.50;;;;;;;12.62;64.18;96032.25;108727;1253;101257;-73
2023/04/24 17:30:58;;;;;;;16.00;11.30;;;;;;;12.56;64.35;96031.05;108731;1253;98952;-72
2023/04/24 17:33:30;;;;;;;15.80;12.40;;;;;;;12.54;64.47;96029.27;108724;1252;94288;-73
2023/04/24 17:36:00;;;;;;;15.90;12.50;;;;;;;12.52;64.53;96028.44;108729;1252;94681;-72
2023/04/24 17:38:28;;;;;;;17.60;13.30;;;;;;;12.50;64.74;96025.21;108403;1253;102300;-73